sensor_id;sensor_type;location;lat;lon;timestamp;P1;durP1;ratioP1;P2;durP2;ratioP2
9799;SDS011;4939;52.00085300;4.17406100;2022-09-01T00:01:39;5.70;;;1.92;;
9799;SDS011;4939;52.00085300;4.17406100;2022-09-01T00:04:07;6.10;;;1.83;;
9799;SDS011;4939;52.00085300;4.17406100;2022-09-01T00:06:34;4.32;;;1.67;;
9799;SDS011;4939;52.00085300;4.17406100;2022-09-01T00:09:02;5.40;;;1.95;;
9799;SDS011;4939;52.00085300;4.17406100;2022-09-01T00:11:29;4.30;;;1.80;;
9799;SDS011;4939;52.00085300;4.17406100;2022-09-01T00:13:55;5.75;;;1.70;;
9799;SDS011;4939;52.00085300;4.17406100;2022-09-01T00:16:21;6.95;;;1.98;;
9799;SDS011;4939;52.00085300;4.17406100;2022-09-01T00:18:49;6.18;;;2.08;;
9799;SDS011;4939;52.00085300;4.17406100;2022-09-01T00:21:16;11.45;;;1.90;;
9799;SDS011;4939;52.00085300;4.17406100;2022-09-01T00:23:43;5.93;;;1.80;;
9799;SDS011;4939;52.00085300;4.17406100;2022-09-01T00:26:10;4.32;;;1.60;;
9799;SDS011;4939;52.00085300;4.17406100;2022-09-01T00:28:36;5.30;;;1.90;;
9799;SDS011;4939;52.00085300;4.17406100;2022-09-01T00:31:02;4.53;;;1.77;;
9799;SDS011;4939;52.00085300;4.17406100;2022-09-01T00:33:30;7.00;;;1.98;;
9799;SDS011;4939;52.00085300;4.17406100;2022-09-01T00:35:56;6.15;;;1.75;;
9799;SDS011;4939;52.00085300;4.17406100;2022-09-01T00:38:22;5.80;;;1.75;;
9799;SDS011;4939;52.00085300;4.17406100;2022-09-01T00:40:49;5.10;;;2.08;;
9799;SDS011;4939;52.00085300;4.17406100;2022-09-01T00:46:01;5.50;;;2.00;;
9799;SDS011;4939;52.00085300;4.17406100;2022-09-01T00:48:27;5.50;;;1.80;;
9799;SDS011;4939;52.00085300;4.17406100;2022-09-01T00:50:53;8.05;;;2.08;;
9799;SDS011;4939;52.00085300;4.17406100;2022-09-01T00:53:20;5.43;;;1.75;;
9799;SDS011;4939;52.00085300;4.17406100;2022-09-01T00:55:46;5.53;;;1.60;;
9799;SDS011;4939;52.00085300;4.17406100;2022-09-01T00:58:12;5.40;;;1.92;;
9799;SDS011;4939;52.00085300;4.17406100;2022-09-01T01:00:38;5.20;;;1.70;;
9799;SDS011;4939;52.00085300;4.17406100;2022-09-01T01:03:08;7.10;;;1.77;;
9799;SDS011;4939;52.00085300;4.17406100;2022-09-01T01:05:39;6.10;;;1.50;;
9799;SDS011;4939;52.00085300;4.17406100;2022-09-01T01:08:07;9.63;;;2.35;;
9799;SDS011;4939;52.00085300;4.17406100;2022-09-01T01:10:36;5.30;;;1.80;;
9799;SDS011;4939;52.00085300;4.17406100;2022-09-01T01:13:10;5.28;;;1.85;;
9799;SDS011;4939;52.00085300;4.17406100;2022-09-01T01:15:38;5.18;;;1.70;;
9799;SDS011;4939;52.00085300;4.17406100;2022-09-01T01:18:08;8.15;;;1.55;;
9799;SDS011;4939;52.00085300;4.17406100;2022-09-01T01:20:34;5.05;;;1.77;;
9799;SDS011;4939;52.00085300;4.17406100;2022-09-01T01:23:38;6.95;;;1.83;;
9799;SDS011;4939;52.00085300;4.17406100;2022-09-01T01:26:07;6.18;;;1.65;;
9799;SDS011;4939;52.00085300;4.17406100;2022-09-01T01:28:35;4.75;;;1.70;;
9799;SDS011;4939;52.00085300;4.17406100;2022-09-01T01:33:43;6.47;;;1.92;;
9799;SDS011;4939;52.00085300;4.17406100;2022-09-01T01:36:12;5.30;;;2.03;;
9799;SDS011;4939;52.00085300;4.17406100;2022-09-01T01:38:42;6.50;;;1.80;;
9799;SDS011;4939;52.00085300;4.17406100;2022-09-01T01:41:09;4.78;;;1.90;;
9799;SDS011;4939;52.00085300;4.17406100;2022-09-01T01:43:35;4.93;;;1.50;;
9799;SDS011;4939;52.00085300;4.17406100;2022-09-01T01:46:02;6.28;;;1.90;;
9799;SDS011;4939;52.00085300;4.17406100;2022-09-01T01:48:30;6.90;;;1.80;;
9799;SDS011;4939;52.00085300;4.17406100;2022-09-01T01:50:59;6.05;;;1.70;;
9799;SDS011;4939;52.00085300;4.17406100;2022-09-01T01:53:26;8.82;;;2.20;;
9799;SDS011;4939;52.00085300;4.17406100;2022-09-01T01:55:52;4.93;;;1.90;;
9799;SDS011;4939;52.00085300;4.17406100;2022-09-01T01:58:20;5.25;;;1.60;;
9799;SDS011;4939;52.00085300;4.17406100;2022-09-01T02:00:49;5.20;;;1.73;;
9799;SDS011;4939;52.00085300;4.17406100;2022-09-01T02:03:17;5.32;;;1.85;;
9799;SDS011;4939;52.00085300;4.17406100;2022-09-01T02:05:44;7.93;;;1.80;;
9799;SDS011;4939;52.00085300;4.17406100;2022-09-01T02:08:11;5.70;;;1.63;;
9799;SDS011;4939;52.00085300;4.17406100;2022-09-01T02:10:39;8.35;;;2.20;;
9799;SDS011;4939;52.00085300;4.17406100;2022-09-01T02:13:08;7.13;;;1.73;;
9799;SDS011;4939;52.00085300;4.17406100;2022-09-01T02:15:41;5.38;;;1.55;;
9799;SDS011;4939;52.00085300;4.17406100;2022-09-01T02:18:14;5.57;;;1.80;;
9799;SDS011;4939;52.00085300;4.17406100;2022-09-01T02:20:40;4.70;;;1.80;;
9799;SDS011;4939;52.00085300;4.17406100;2022-09-01T02:23:07;7.10;;;1.95;;
9799;SDS011;4939;52.00085300;4.17406100;2022-09-01T02:25:36;11.15;;;1.90;;
9799;SDS011;4939;52.00085300;4.17406100;2022-09-01T02:28:02;7.93;;;1.80;;
9799;SDS011;4939;52.00085300;4.17406100;2022-09-01T02:30:33;4.32;;;1.63;;
9799;SDS011;4939;52.00085300;4.17406100;2022-09-01T02:33:01;6.68;;;1.80;;
9799;SDS011;4939;52.00085300;4.17406100;2022-09-01T02:35:29;6.65;;;1.90;;
9799;SDS011;4939;52.00085300;4.17406100;2022-09-01T02:37:56;5.60;;;2.15;;
9799;SDS011;4939;52.00085300;4.17406100;2022-09-01T02:40:25;7.00;;;1.95;;
9799;SDS011;4939;52.00085300;4.17406100;2022-09-01T02:42:55;5.05;;;1.80;;
9799;SDS011;4939;52.00085300;4.17406100;2022-09-01T02:45:22;5.95;;;1.60;;
9799;SDS011;4939;52.00085300;4.17406100;2022-09-01T02:47:49;6.65;;;1.52;;
9799;SDS011;4939;52.00085300;4.17406100;2022-09-01T02:50:15;4.38;;;1.75;;
9799;SDS011;4939;52.00085300;4.17406100;2022-09-01T02:52:44;5.90;;;2.10;;
9799;SDS011;4939;52.00085300;4.17406100;2022-09-01T02:55:12;6.32;;;2.05;;
9799;SDS011;4939;52.00085300;4.17406100;2022-09-01T02:57:45;6.78;;;1.90;;
9799;SDS011;4939;52.00085300;4.17406100;2022-09-01T03:00:14;6.63;;;1.83;;
9799;SDS011;4939;52.00085300;4.17406100;2022-09-01T03:02:56;8.77;;;1.90;;
9799;SDS011;4939;52.00085300;4.17406100;2022-09-01T03:05:23;5.57;;;2.05;;
9799;SDS011;4939;52.00085300;4.17406100;2022-09-01T03:07:52;7.75;;;2.17;;
9799;SDS011;4939;52.00085300;4.17406100;2022-09-01T03:10:21;9.50;;;1.90;;
9799;SDS011;4939;52.00085300;4.17406100;2022-09-01T03:12:52;5.93;;;2.03;;
9799;SDS011;4939;52.00085300;4.17406100;2022-09-01T03:15:18;6.05;;;1.80;;
9799;SDS011;4939;52.00085300;4.17406100;2022-09-01T03:17:45;4.53;;;1.88;;
9799;SDS011;4939;52.00085300;4.17406100;2022-09-01T03:20:13;5.15;;;1.70;;
9799;SDS011;4939;52.00085300;4.17406100;2022-09-01T03:22:39;4.82;;;1.95;;
9799;SDS011;4939;52.00085300;4.17406100;2022-09-01T03:25:06;6.88;;;2.10;;
9799;SDS011;4939;52.00085300;4.17406100;2022-09-01T03:27:32;5.07;;;1.70;;
9799;SDS011;4939;52.00085300;4.17406100;2022-09-01T03:29:59;5.55;;;1.90;;
9799;SDS011;4939;52.00085300;4.17406100;2022-09-01T03:32:25;6.45;;;1.80;;
9799;SDS011;4939;52.00085300;4.17406100;2022-09-01T03:34:53;5.68;;;1.85;;
9799;SDS011;4939;52.00085300;4.17406100;2022-09-01T03:37:19;6.07;;;2.00;;
9799;SDS011;4939;52.00085300;4.17406100;2022-09-01T03:39:47;6.28;;;1.88;;
9799;SDS011;4939;52.00085300;4.17406100;2022-09-01T03:42:13;5.72;;;1.67;;
9799;SDS011;4939;52.00085300;4.17406100;2022-09-01T03:44:50;6.90;;;1.58;;
9799;SDS011;4939;52.00085300;4.17406100;2022-09-01T03:47:18;7.07;;;2.05;;
9799;SDS011;4939;52.00085300;4.17406100;2022-09-01T03:49:45;6.85;;;1.92;;
9799;SDS011;4939;52.00085300;4.17406100;2022-09-01T03:52:14;5.63;;;1.60;;
9799;SDS011;4939;52.00085300;4.17406100;2022-09-01T03:54:41;6.07;;;1.92;;
9799;SDS011;4939;52.00085300;4.17406100;2022-09-01T03:57:08;6.97;;;1.83;;
9799;SDS011;4939;52.00085300;4.17406100;2022-09-01T03:59:34;9.13;;;2.25;;
9799;SDS011;4939;52.00085300;4.17406100;2022-09-01T04:02:03;6.25;;;1.83;;
9799;SDS011;4939;52.00085300;4.17406100;2022-09-01T04:04:29;7.50;;;1.98;;
9799;SDS011;4939;52.00085300;4.17406100;2022-09-01T04:06:57;5.88;;;2.05;;
9799;SDS011;4939;52.00085300;4.17406100;2022-09-01T04:09:24;6.63;;;1.80;;
9799;SDS011;4939;52.00085300;4.17406100;2022-09-01T04:11:51;6.78;;;2.25;;
9799;SDS011;4939;52.00085300;4.17406100;2022-09-01T04:14:17;5.53;;;1.80;;
9799;SDS011;4939;52.00085300;4.17406100;2022-09-01T04:16:43;8.70;;;1.90;;
9799;SDS011;4939;52.00085300;4.17406100;2022-09-01T04:19:32;6.13;;;1.98;;
9799;SDS011;4939;52.00085300;4.17406100;2022-09-01T04:22:01;6.68;;;2.03;;
9799;SDS011;4939;52.00085300;4.17406100;2022-09-01T04:24:28;6.28;;;2.08;;
9799;SDS011;4939;52.00085300;4.17406100;2022-09-01T04:26:56;5.70;;;1.95;;
9799;SDS011;4939;52.00085300;4.17406100;2022-09-01T04:29:22;7.90;;;2.00;;
9799;SDS011;4939;52.00085300;4.17406100;2022-09-01T04:31:55;8.02;;;2.10;;
9799;SDS011;4939;52.00085300;4.17406100;2022-09-01T04:34:26;14.70;;;2.17;;
9799;SDS011;4939;52.00085300;4.17406100;2022-09-01T04:36:52;5.10;;;2.00;;
9799;SDS011;4939;52.00085300;4.17406100;2022-09-01T04:39:21;5.55;;;2.15;;
9799;SDS011;4939;52.00085300;4.17406100;2022-09-01T04:41:48;9.55;;;1.95;;
9799;SDS011;4939;52.00085300;4.17406100;2022-09-01T04:44:16;5.47;;;2.30;;
9799;SDS011;4939;52.00085300;4.17406100;2022-09-01T04:46:43;7.35;;;2.25;;
9799;SDS011;4939;52.00085300;4.17406100;2022-09-01T04:49:14;6.25;;;2.22;;
9799;SDS011;4939;52.00085300;4.17406100;2022-09-01T04:51:47;5.85;;;2.22;;
9799;SDS011;4939;52.00085300;4.17406100;2022-09-01T04:54:13;9.98;;;2.67;;
9799;SDS011;4939;52.00085300;4.17406100;2022-09-01T04:56:44;7.65;;;2.05;;
9799;SDS011;4939;52.00085300;4.17406100;2022-09-01T04:59:12;6.68;;;2.17;;
9799;SDS011;4939;52.00085300;4.17406100;2022-09-01T05:01:38;6.45;;;2.85;;
9799;SDS011;4939;52.00085300;4.17406100;2022-09-01T05:04:13;6.10;;;2.45;;
9799;SDS011;4939;52.00085300;4.17406100;2022-09-01T05:06:42;5.65;;;2.55;;
9799;SDS011;4939;52.00085300;4.17406100;2022-09-01T05:09:08;6.10;;;2.40;;
9799;SDS011;4939;52.00085300;4.17406100;2022-09-01T05:11:36;11.80;;;2.50;;
9799;SDS011;4939;52.00085300;4.17406100;2022-09-01T05:14:03;6.28;;;2.30;;
9799;SDS011;4939;52.00085300;4.17406100;2022-09-01T05:16:31;7.93;;;2.72;;
9799;SDS011;4939;52.00085300;4.17406100;2022-09-01T05:18:58;5.63;;;2.20;;
9799;SDS011;4939;52.00085300;4.17406100;2022-09-01T05:21:25;7.78;;;2.58;;
9799;SDS011;4939;52.00085300;4.17406100;2022-09-01T05:23:54;6.43;;;2.95;;
9799;SDS011;4939;52.00085300;4.17406100;2022-09-01T05:26:25;8.18;;;2.67;;
9799;SDS011;4939;52.00085300;4.17406100;2022-09-01T05:31:21;5.25;;;2.70;;
9799;SDS011;4939;52.00085300;4.17406100;2022-09-01T05:33:48;6.82;;;2.70;;
9799;SDS011;4939;52.00085300;4.17406100;2022-09-01T05:36:16;6.97;;;3.00;;
9799;SDS011;4939;52.00085300;4.17406100;2022-09-01T05:38:43;7.15;;;2.30;;
9799;SDS011;4939;52.00085300;4.17406100;2022-09-01T05:41:10;9.40;;;2.80;;
9799;SDS011;4939;52.00085300;4.17406100;2022-09-01T05:43:43;7.68;;;3.00;;
9799;SDS011;4939;52.00085300;4.17406100;2022-09-01T05:46:17;7.13;;;3.15;;
9799;SDS011;4939;52.00085300;4.17406100;2022-09-01T05:48:45;10.23;;;2.80;;
9799;SDS011;4939;52.00085300;4.17406100;2022-09-01T05:51:14;10.95;;;2.88;;
9799;SDS011;4939;52.00085300;4.17406100;2022-09-01T05:53:44;16.25;;;4.80;;
9799;SDS011;4939;52.00085300;4.17406100;2022-09-01T05:56:11;6.88;;;2.50;;
9799;SDS011;4939;52.00085300;4.17406100;2022-09-01T05:58:39;13.07;;;3.58;;
9799;SDS011;4939;52.00085300;4.17406100;2022-09-01T06:01:07;9.48;;;2.80;;
9799;SDS011;4939;52.00085300;4.17406100;2022-09-01T06:03:35;8.90;;;2.47;;
9799;SDS011;4939;52.00085300;4.17406100;2022-09-01T06:06:02;8.48;;;3.10;;
9799;SDS011;4939;52.00085300;4.17406100;2022-09-01T06:08:29;23.10;;;5.05;;
9799;SDS011;4939;52.00085300;4.17406100;2022-09-01T06:10:55;7.97;;;2.78;;
9799;SDS011;4939;52.00085300;4.17406100;2022-09-01T06:13:22;15.00;;;3.05;;
9799;SDS011;4939;52.00085300;4.17406100;2022-09-01T06:15:48;6.15;;;2.50;;
9799;SDS011;4939;52.00085300;4.17406100;2022-09-01T06:18:15;8.35;;;2.33;;
9799;SDS011;4939;52.00085300;4.17406100;2022-09-01T06:20:46;8.38;;;2.85;;
9799;SDS011;4939;52.00085300;4.17406100;2022-09-01T06:23:13;9.07;;;2.30;;
9799;SDS011;4939;52.00085300;4.17406100;2022-09-01T06:25:42;9.40;;;3.00;;
9799;SDS011;4939;52.00085300;4.17406100;2022-09-01T06:28:14;9.70;;;2.58;;
9799;SDS011;4939;52.00085300;4.17406100;2022-09-01T06:30:50;6.68;;;2.42;;
9799;SDS011;4939;52.00085300;4.17406100;2022-09-01T06:33:17;9.02;;;2.63;;
9799;SDS011;4939;52.00085300;4.17406100;2022-09-01T06:35:45;5.47;;;2.70;;
9799;SDS011;4939;52.00085300;4.17406100;2022-09-01T06:38:11;9.52;;;2.65;;
9799;SDS011;4939;52.00085300;4.17406100;2022-09-01T06:40:39;6.10;;;2.40;;
9799;SDS011;4939;52.00085300;4.17406100;2022-09-01T06:43:06;6.80;;;2.60;;
9799;SDS011;4939;52.00085300;4.17406100;2022-09-01T06:45:37;6.70;;;2.78;;
9799;SDS011;4939;52.00085300;4.17406100;2022-09-01T06:48:05;11.55;;;2.42;;
9799;SDS011;4939;52.00085300;4.17406100;2022-09-01T06:50:31;11.90;;;2.58;;
9799;SDS011;4939;52.00085300;4.17406100;2022-09-01T06:52:57;8.00;;;2.85;;
9799;SDS011;4939;52.00085300;4.17406100;2022-09-01T06:55:29;7.32;;;2.80;;
9799;SDS011;4939;52.00085300;4.17406100;2022-09-01T06:57:58;5.72;;;2.20;;
9799;SDS011;4939;52.00085300;4.17406100;2022-09-01T07:00:24;6.80;;;1.85;;
9799;SDS011;4939;52.00085300;4.17406100;2022-09-01T07:02:56;7.10;;;2.67;;
9799;SDS011;4939;52.00085300;4.17406100;2022-09-01T07:05:23;5.90;;;2.60;;
9799;SDS011;4939;52.00085300;4.17406100;2022-09-01T07:07:50;6.38;;;2.60;;
9799;SDS011;4939;52.00085300;4.17406100;2022-09-01T07:10:20;6.35;;;2.45;;
9799;SDS011;4939;52.00085300;4.17406100;2022-09-01T07:12:56;5.20;;;2.33;;
9799;SDS011;4939;52.00085300;4.17406100;2022-09-01T07:15:23;5.45;;;2.20;;
9799;SDS011;4939;52.00085300;4.17406100;2022-09-01T07:17:53;5.15;;;2.20;;
9799;SDS011;4939;52.00085300;4.17406100;2022-09-01T07:20:21;9.27;;;2.20;;
9799;SDS011;4939;52.00085300;4.17406100;2022-09-01T07:22:48;10.27;;;2.47;;
9799;SDS011;4939;52.00085300;4.17406100;2022-09-01T07:25:14;7.72;;;2.55;;
9799;SDS011;4939;52.00085300;4.17406100;2022-09-01T07:27:41;11.80;;;2.97;;
9799;SDS011;4939;52.00085300;4.17406100;2022-09-01T07:30:17;9.80;;;3.13;;
9799;SDS011;4939;52.00085300;4.17406100;2022-09-01T07:32:44;10.38;;;2.50;;
9799;SDS011;4939;52.00085300;4.17406100;2022-09-01T07:35:12;7.68;;;2.70;;
9799;SDS011;4939;52.00085300;4.17406100;2022-09-01T07:37:39;10.10;;;2.70;;
9799;SDS011;4939;52.00085300;4.17406100;2022-09-01T07:40:06;8.23;;;2.63;;
9799;SDS011;4939;52.00085300;4.17406100;2022-09-01T07:42:33;8.45;;;2.60;;
9799;SDS011;4939;52.00085300;4.17406100;2022-09-01T07:44:59;6.90;;;2.30;;
9799;SDS011;4939;52.00085300;4.17406100;2022-09-01T07:47:31;8.80;;;2.63;;
9799;SDS011;4939;52.00085300;4.17406100;2022-09-01T07:50:02;10.60;;;2.75;;
9799;SDS011;4939;52.00085300;4.17406100;2022-09-01T07:52:32;7.35;;;2.47;;
9799;SDS011;4939;52.00085300;4.17406100;2022-09-01T07:55:01;7.55;;;2.45;;
9799;SDS011;4939;52.00085300;4.17406100;2022-09-01T07:57:27;5.82;;;2.65;;
9799;SDS011;4939;52.00085300;4.17406100;2022-09-01T07:59:53;6.68;;;2.63;;
9799;SDS011;4939;52.00085300;4.17406100;2022-09-01T08:02:21;14.80;;;3.08;;
9799;SDS011;4939;52.00085300;4.17406100;2022-09-01T08:04:48;7.38;;;2.85;;
9799;SDS011;4939;52.00085300;4.17406100;2022-09-01T08:07:14;11.13;;;2.80;;
9799;SDS011;4939;52.00085300;4.17406100;2022-09-01T08:09:40;5.82;;;2.72;;
9799;SDS011;4939;52.00085300;4.17406100;2022-09-01T08:12:07;7.68;;;2.50;;
9799;SDS011;4939;52.00085300;4.17406100;2022-09-01T08:14:33;10.15;;;3.38;;
9799;SDS011;4939;52.00085300;4.17406100;2022-09-01T08:16:59;7.03;;;2.72;;
9799;SDS011;4939;52.00085300;4.17406100;2022-09-01T08:19:25;13.13;;;3.08;;
9799;SDS011;4939;52.00085300;4.17406100;2022-09-01T08:21:51;10.55;;;3.38;;
9799;SDS011;4939;52.00085300;4.17406100;2022-09-01T08:24:17;9.32;;;3.10;;
9799;SDS011;4939;52.00085300;4.17406100;2022-09-01T08:26:44;6.80;;;2.70;;
9799;SDS011;4939;52.00085300;4.17406100;2022-09-01T08:29:10;13.95;;;3.33;;
9799;SDS011;4939;52.00085300;4.17406100;2022-09-01T08:31:36;8.75;;;3.00;;
9799;SDS011;4939;52.00085300;4.17406100;2022-09-01T08:34:02;8.23;;;3.00;;
9799;SDS011;4939;52.00085300;4.17406100;2022-09-01T08:36:29;5.63;;;2.47;;
9799;SDS011;4939;52.00085300;4.17406100;2022-09-01T08:38:55;11.73;;;3.17;;
9799;SDS011;4939;52.00085300;4.17406100;2022-09-01T08:44:18;6.32;;;3.08;;
9799;SDS011;4939;52.00085300;4.17406100;2022-09-01T08:46:46;6.43;;;2.97;;
9799;SDS011;4939;52.00085300;4.17406100;2022-09-01T08:49:15;9.52;;;3.33;;
9799;SDS011;4939;52.00085300;4.17406100;2022-09-01T08:51:48;7.55;;;3.13;;
9799;SDS011;4939;52.00085300;4.17406100;2022-09-01T08:54:26;11.85;;;3.13;;
9799;SDS011;4939;52.00085300;4.17406100;2022-09-01T08:56:57;6.65;;;3.20;;
9799;SDS011;4939;52.00085300;4.17406100;2022-09-01T08:59:24;10.10;;;3.03;;
9799;SDS011;4939;52.00085300;4.17406100;2022-09-01T09:07:05;7.80;;;3.05;;
9799;SDS011;4939;52.00085300;4.17406100;2022-09-01T09:09:56;7.82;;;2.75;;
9799;SDS011;4939;52.00085300;4.17406100;2022-09-01T09:15:39;8.80;;;2.60;;
9799;SDS011;4939;52.00085300;4.17406100;2022-09-01T09:18:23;8.30;;;2.53;;
9799;SDS011;4939;52.00085300;4.17406100;2022-09-01T09:20:50;6.03;;;2.75;;
9799;SDS011;4939;52.00085300;4.17406100;2022-09-01T09:23:26;7.93;;;3.42;;
9799;SDS011;4939;52.00085300;4.17406100;2022-09-01T09:25:54;9.07;;;3.10;;
9799;SDS011;4939;52.00085300;4.17406100;2022-09-01T09:28:21;6.80;;;2.80;;
9799;SDS011;4939;52.00085300;4.17406100;2022-09-01T09:30:47;7.75;;;2.45;;
9799;SDS011;4939;52.00085300;4.17406100;2022-09-01T09:33:31;7.38;;;2.63;;
9799;SDS011;4939;52.00085300;4.17406100;2022-09-01T09:36:14;6.90;;;2.60;;
9799;SDS011;4939;52.00085300;4.17406100;2022-09-01T09:38:40;10.77;;;2.67;;
9799;SDS011;4939;52.00085300;4.17406100;2022-09-01T09:41:07;8.60;;;2.80;;
9799;SDS011;4939;52.00085300;4.17406100;2022-09-01T09:43:42;10.80;;;2.50;;
9799;SDS011;4939;52.00085300;4.17406100;2022-09-01T09:49:05;6.22;;;2.97;;
9799;SDS011;4939;52.00085300;4.17406100;2022-09-01T09:51:31;8.52;;;2.83;;
9799;SDS011;4939;52.00085300;4.17406100;2022-09-01T09:54:14;5.78;;;2.30;;
9799;SDS011;4939;52.00085300;4.17406100;2022-09-01T09:56:41;6.30;;;2.58;;
9799;SDS011;4939;52.00085300;4.17406100;2022-09-01T09:59:15;6.75;;;2.53;;
9799;SDS011;4939;52.00085300;4.17406100;2022-09-01T10:01:42;7.70;;;2.40;;
9799;SDS011;4939;52.00085300;4.17406100;2022-09-01T10:04:08;9.20;;;2.60;;
9799;SDS011;4939;52.00085300;4.17406100;2022-09-01T10:09:07;7.00;;;2.42;;
9799;SDS011;4939;52.00085300;4.17406100;2022-09-01T10:11:38;5.05;;;2.50;;
9799;SDS011;4939;52.00085300;4.17406100;2022-09-01T10:14:05;5.85;;;2.33;;
9799;SDS011;4939;52.00085300;4.17406100;2022-09-01T10:16:32;6.78;;;2.63;;
9799;SDS011;4939;52.00085300;4.17406100;2022-09-01T10:19:01;6.13;;;2.20;;
9799;SDS011;4939;52.00085300;4.17406100;2022-09-01T10:23:54;9.52;;;2.08;;
9799;SDS011;4939;52.00085300;4.17406100;2022-09-01T10:26:31;7.05;;;2.55;;
9799;SDS011;4939;52.00085300;4.17406100;2022-09-01T10:29:07;6.30;;;2.28;;
9799;SDS011;4939;52.00085300;4.17406100;2022-09-01T10:31:34;8.35;;;2.10;;
9799;SDS011;4939;52.00085300;4.17406100;2022-09-01T10:34:03;7.60;;;2.25;;
9799;SDS011;4939;52.00085300;4.17406100;2022-09-01T10:36:29;5.47;;;2.28;;
9799;SDS011;4939;52.00085300;4.17406100;2022-09-01T10:38:56;7.40;;;2.13;;
9799;SDS011;4939;52.00085300;4.17406100;2022-09-01T10:44:17;5.90;;;1.88;;
9799;SDS011;4939;52.00085300;4.17406100;2022-09-01T10:46:44;5.53;;;2.25;;
9799;SDS011;4939;52.00085300;4.17406100;2022-09-01T10:49:18;6.32;;;2.25;;
9799;SDS011;4939;52.00085300;4.17406100;2022-09-01T10:51:45;6.90;;;2.30;;
9799;SDS011;4939;52.00085300;4.17406100;2022-09-01T10:56:56;7.65;;;2.45;;
9799;SDS011;4939;52.00085300;4.17406100;2022-09-01T10:59:25;6.20;;;2.08;;
9799;SDS011;4939;52.00085300;4.17406100;2022-09-01T11:07:01;7.40;;;1.50;;
9799;SDS011;4939;52.00085300;4.17406100;2022-09-01T11:09:41;7.20;;;1.88;;
9799;SDS011;4939;52.00085300;4.17406100;2022-09-01T11:12:11;6.67;;;2.17;;
9799;SDS011;4939;52.00085300;4.17406100;2022-09-01T11:14:49;6.07;;;1.70;;
9799;SDS011;4939;52.00085300;4.17406100;2022-09-01T11:17:22;5.45;;;1.70;;
9799;SDS011;4939;52.00085300;4.17406100;2022-09-01T11:19:56;6.25;;;1.80;;
9799;SDS011;4939;52.00085300;4.17406100;2022-09-01T11:22:42;8.63;;;1.63;;
9799;SDS011;4939;52.00085300;4.17406100;2022-09-01T11:30:17;5.03;;;1.48;;
9799;SDS011;4939;52.00085300;4.17406100;2022-09-01T11:32:45;4.65;;;1.70;;
9799;SDS011;4939;52.00085300;4.17406100;2022-09-01T11:35:14;4.90;;;1.42;;
9799;SDS011;4939;52.00085300;4.17406100;2022-09-01T11:37:41;5.32;;;1.60;;
9799;SDS011;4939;52.00085300;4.17406100;2022-09-01T11:40:07;7.80;;;1.60;;
9799;SDS011;4939;52.00085300;4.17406100;2022-09-01T11:42:41;5.95;;;1.60;;
9799;SDS011;4939;52.00085300;4.17406100;2022-09-01T11:45:18;6.78;;;1.90;;
9799;SDS011;4939;52.00085300;4.17406100;2022-09-01T11:47:51;6.18;;;1.95;;
9799;SDS011;4939;52.00085300;4.17406100;2022-09-01T11:50:19;9.40;;;1.77;;
9799;SDS011;4939;52.00085300;4.17406100;2022-09-01T11:53:05;4.55;;;1.55;;
9799;SDS011;4939;52.00085300;4.17406100;2022-09-01T11:55:37;4.30;;;1.50;;
9799;SDS011;4939;52.00085300;4.17406100;2022-09-01T11:58:05;5.05;;;1.63;;
9799;SDS011;4939;52.00085300;4.17406100;2022-09-01T12:00:35;8.68;;;2.00;;
9799;SDS011;4939;52.00085300;4.17406100;2022-09-01T12:03:02;4.78;;;1.95;;
9799;SDS011;4939;52.00085300;4.17406100;2022-09-01T12:05:30;8.23;;;1.75;;
9799;SDS011;4939;52.00085300;4.17406100;2022-09-01T12:07:57;3.88;;;1.50;;
9799;SDS011;4939;52.00085300;4.17406100;2022-09-01T12:10:36;4.10;;;1.58;;
9799;SDS011;4939;52.00085300;4.17406100;2022-09-01T12:13:04;6.82;;;1.70;;
9799;SDS011;4939;52.00085300;4.17406100;2022-09-01T12:15:30;6.00;;;1.73;;
9799;SDS011;4939;52.00085300;4.17406100;2022-09-01T12:18:10;5.05;;;1.80;;
9799;SDS011;4939;52.00085300;4.17406100;2022-09-01T12:20:37;7.18;;;1.67;;
9799;SDS011;4939;52.00085300;4.17406100;2022-09-01T12:23:03;5.28;;;1.60;;
9799;SDS011;4939;52.00085300;4.17406100;2022-09-01T12:25:39;4.40;;;1.67;;
9799;SDS011;4939;52.00085300;4.17406100;2022-09-01T12:28:06;7.28;;;1.70;;
9799;SDS011;4939;52.00085300;4.17406100;2022-09-01T12:30:32;3.97;;;1.60;;
9799;SDS011;4939;52.00085300;4.17406100;2022-09-01T12:33:05;8.10;;;2.13;;
9799;SDS011;4939;52.00085300;4.17406100;2022-09-01T12:35:31;6.80;;;1.58;;
9799;SDS011;4939;52.00085300;4.17406100;2022-09-01T12:40:42;4.05;;;1.50;;
9799;SDS011;4939;52.00085300;4.17406100;2022-09-01T12:43:09;4.65;;;1.70;;
9799;SDS011;4939;52.00085300;4.17406100;2022-09-01T12:45:39;4.63;;;1.60;;
9799;SDS011;4939;52.00085300;4.17406100;2022-09-01T12:48:05;8.73;;;2.17;;
9799;SDS011;4939;52.00085300;4.17406100;2022-09-01T12:50:33;5.82;;;1.80;;
9799;SDS011;4939;52.00085300;4.17406100;2022-09-01T12:53:00;9.13;;;1.98;;
9799;SDS011;4939;52.00085300;4.17406100;2022-09-01T12:55:28;5.18;;;1.80;;
9799;SDS011;4939;52.00085300;4.17406100;2022-09-01T12:57:55;6.38;;;1.90;;
9799;SDS011;4939;52.00085300;4.17406100;2022-09-01T13:00:24;4.47;;;1.60;;
9799;SDS011;4939;52.00085300;4.17406100;2022-09-01T13:03:02;8.20;;;1.80;;
9799;SDS011;4939;52.00085300;4.17406100;2022-09-01T13:08:16;21.33;;;3.00;;
9799;SDS011;4939;52.00085300;4.17406100;2022-09-01T13:10:44;6.65;;;2.38;;
9799;SDS011;4939;52.00085300;4.17406100;2022-09-01T13:13:10;4.40;;;1.55;;
9799;SDS011;4939;52.00085300;4.17406100;2022-09-01T13:15:41;6.60;;;1.80;;
9799;SDS011;4939;52.00085300;4.17406100;2022-09-01T13:18:07;5.45;;;1.70;;
9799;SDS011;4939;52.00085300;4.17406100;2022-09-01T13:20:33;6.45;;;1.70;;
9799;SDS011;4939;52.00085300;4.17406100;2022-09-01T13:22:59;8.88;;;2.03;;
9799;SDS011;4939;52.00085300;4.17406100;2022-09-01T13:25:27;5.30;;;1.90;;
9799;SDS011;4939;52.00085300;4.17406100;2022-09-01T13:27:53;4.43;;;1.48;;
9799;SDS011;4939;52.00085300;4.17406100;2022-09-01T13:30:21;9.48;;;2.20;;
9799;SDS011;4939;52.00085300;4.17406100;2022-09-01T13:32:48;6.30;;;1.70;;
9799;SDS011;4939;52.00085300;4.17406100;2022-09-01T13:35:17;4.45;;;1.65;;
9799;SDS011;4939;52.00085300;4.17406100;2022-09-01T13:37:46;6.60;;;1.88;;
9799;SDS011;4939;52.00085300;4.17406100;2022-09-01T13:40:13;6.80;;;2.00;;
9799;SDS011;4939;52.00085300;4.17406100;2022-09-01T13:42:43;6.63;;;1.48;;
9799;SDS011;4939;52.00085300;4.17406100;2022-09-01T13:45:10;6.18;;;1.60;;
9799;SDS011;4939;52.00085300;4.17406100;2022-09-01T13:47:40;5.22;;;1.55;;
9799;SDS011;4939;52.00085300;4.17406100;2022-09-01T13:50:07;9.10;;;2.85;;
9799;SDS011;4939;52.00085300;4.17406100;2022-09-01T13:52:35;4.40;;;1.63;;
9799;SDS011;4939;52.00085300;4.17406100;2022-09-01T13:55:01;11.35;;;2.17;;
9799;SDS011;4939;52.00085300;4.17406100;2022-09-01T13:57:27;4.47;;;1.60;;
9799;SDS011;4939;52.00085300;4.17406100;2022-09-01T13:59:54;6.97;;;1.92;;
9799;SDS011;4939;52.00085300;4.17406100;2022-09-01T14:02:22;6.07;;;1.80;;
9799;SDS011;4939;52.00085300;4.17406100;2022-09-01T14:04:50;4.88;;;1.42;;
9799;SDS011;4939;52.00085300;4.17406100;2022-09-01T14:07:16;6.75;;;1.80;;